createdAt,value
2023-03-22T00:02:20.056Z,100756.94
2023-03-22T00:04:44.519Z,100753.41
2023-03-22T00:07:08.294Z,100753.50
2023-03-22T00:09:33.332Z,100750.06
2023-03-22T00:11:57.157Z,100751.84
2023-03-22T00:14:20.921Z,100744.41
2023-03-22T00:16:46.104Z,100753.41
2023-03-22T00:19:09.801Z,100742.31
2023-03-22T00:21:33.649Z,100749.41
2023-03-22T00:23:57.380Z,100750.75
2023-03-22T00:26:22.660Z,100749.56
2023-03-22T00:28:46.730Z,100740.59
2023-03-22T00:31:12.109Z,100733.53
2023-03-22T00:33:36.405Z,100736.19
2023-03-22T00:36:02.471Z,100731.38
2023-03-22T00:38:42.005Z,100734.41
2023-03-22T00:41:11.920Z,100736.63
2023-03-22T00:43:37.117Z,100733.81
2023-03-22T00:46:00.959Z,100723.06
2023-03-22T00:48:24.771Z,100730.66
2023-03-22T00:50:48.649Z,100722.84
2023-03-22T00:53:12.405Z,100731.50
2023-03-22T00:55:36.169Z,100732.63
2023-03-22T00:58:00.201Z,100733.16
2023-03-22T01:00:26.469Z,100734.88
2023-03-22T01:02:53.286Z,100729.88
2023-03-22T01:05:22.035Z,100727.19
2023-03-22T01:07:46.032Z,100724.63
2023-03-22T01:10:11.651Z,100713.16
2023-03-22T01:12:35.414Z,100717.84
2023-03-22T01:14:59.263Z,100716.00
2023-03-22T01:17:24.482Z,100710.59
2023-03-22T01:19:48.427Z,100710.47
2023-03-22T01:22:12.165Z,100718.25
2023-03-22T01:24:36.033Z,100702.88
2023-03-22T01:26:59.885Z,100705.47
2023-03-22T01:29:23.731Z,100706.44
2023-03-22T01:31:47.428Z,100702.66
2023-03-22T01:34:12.584Z,100701.53
2023-03-22T01:36:36.305Z,100692.31
2023-03-22T01:39:00.540Z,100696.13
2023-03-22T01:41:24.482Z,100695.47
2023-03-22T01:44:10.354Z,100684.50
2023-03-22T01:46:34.499Z,100685.84
2023-03-22T01:48:58.289Z,100680.94
2023-03-22T01:51:26.191Z,100674.41
2023-03-22T01:54:10.052Z,100676.09
2023-03-22T01:56:38.767Z,100677.19
2023-03-22T01:59:04.488Z,100677.66
2023-03-22T02:01:46.995Z,100682.44
2023-03-22T02:04:15.612Z,100680.75
2023-03-22T02:06:41.217Z,100682.69
2023-03-22T02:09:16.762Z,100689.28
2023-03-22T02:11:45.082Z,100677.97
2023-03-22T02:14:35.893Z,100674.56
2023-03-22T02:17:32.068Z,100663.41
2023-03-22T02:20:55.315Z,100671.97
2023-03-22T02:23:55.118Z,100670.47
2023-03-22T02:26:53.451Z,100669.88
2023-03-22T02:29:26.337Z,100661.72
2023-03-22T02:32:30.740Z,100670.47
2023-03-22T02:35:26.971Z,100661.59
2023-03-22T02:39:00.158Z,100662.44
2023-03-22T02:41:37.472Z,100655.34
2023-03-22T02:44:11.729Z,100650.38
2023-03-22T02:46:44.765Z,100651.22
2023-03-22T02:49:19.518Z,100647.22
2023-03-22T02:51:47.234Z,100646.00
2023-03-22T02:54:19.760Z,100643.44
2023-03-22T02:56:48.733Z,100649.66
2023-03-22T02:59:15.200Z,100646.75
2023-03-22T03:01:44.987Z,100646.59
2023-03-22T03:04:15.617Z,100645.66
2023-03-22T03:06:46.355Z,100643.34
2023-03-22T03:09:13.848Z,100640.31
2023-03-22T03:11:37.774Z,100642.97
2023-03-22T03:14:01.734Z,100635.06
2023-03-22T03:16:29.404Z,100641.03
2023-03-22T03:19:00.013Z,100646.66
2023-03-22T03:21:37.758Z,100642.91
2023-03-22T03:24:19.367Z,100647.28
2023-03-22T03:26:53.442Z,100656.06
2023-03-22T03:29:24.036Z,100657.53
2023-03-22T03:31:52.048Z,100657.41
2023-03-22T03:34:22.402Z,100658.03
2023-03-22T03:36:52.344Z,100652.88
2023-03-22T03:39:20.272Z,100655.06
2023-03-22T03:41:47.358Z,100652.03
2023-03-22T03:44:12.971Z,100655.81
2023-03-22T03:46:36.657Z,100652.28
2023-03-22T03:49:01.046Z,100655.31
2023-03-22T03:51:25.172Z,100649.25
2023-03-22T03:53:48.888Z,100644.22
2023-03-22T03:56:15.816Z,100640.94
2023-03-22T03:58:42.738Z,100645.94
2023-03-22T04:01:07.496Z,100637.88
2023-03-22T04:03:50.862Z,100637.88
2023-03-22T04:06:29.334Z,100647.75
2023-03-22T04:08:58.232Z,100646.28
2023-03-22T04:11:28.772Z,100643.97
2023-03-22T04:13:56.565Z,100638.59
2023-03-22T04:16:20.555Z,100643.69
2023-03-22T04:18:44.358Z,100641.50
2023-03-22T04:21:09.335Z,100646.75
2023-03-22T04:23:46.821Z,100643.97
2023-03-22T04:26:11.271Z,100652.13
2023-03-22T04:28:46.768Z,100648.31
2023-03-22T04:31:10.926Z,100648.69
2023-03-22T04:33:57.409Z,100648.22
2023-03-22T04:36:31.240Z,100634.28
2023-03-22T04:39:13.733Z,100636.00
2023-03-22T04:41:42.258Z,100637.25
2023-03-22T04:44:08.485Z,100631.41
2023-03-22T04:46:38.022Z,100634.28
2023-03-22T04:49:03.670Z,100633.69
2023-03-22T04:51:32.132Z,100634.44
2023-03-22T04:54:16.879Z,100633.19
2023-03-22T04:56:41.533Z,100621.94
2023-03-22T04:59:06.801Z,100622.81
2023-03-22T05:01:30.524Z,100621.34
2023-03-22T05:04:05.933Z,100621.50
2023-03-22T05:06:32.738Z,100622.94
2023-03-22T05:09:06.030Z,100615.50
2023-03-22T05:11:29.842Z,100619.75
2023-03-22T05:14:11.864Z,100614.84
2023-03-22T05:16:36.979Z,100623.19
2023-03-22T05:19:02.445Z,100613.69
2023-03-22T05:21:29.194Z,100614.41
2023-03-22T05:23:56.764Z,100615.88
2023-03-22T05:26:24.357Z,100611.47
2023-03-22T05:28:48.076Z,100603.13
2023-03-22T05:31:21.727Z,100597.16
2023-03-22T05:33:56.315Z,100606.84
2023-03-22T05:36:24.072Z,100596.88
2023-03-22T05:39:20.570Z,100604.81
2023-03-22T05:41:44.722Z,100607.44
2023-03-22T05:44:08.746Z,100605.97
2023-03-22T05:46:38.494Z,100602.38
2023-03-22T05:49:28.418Z,100605.00
2023-03-22T05:51:52.802Z,100594.00
2023-03-22T05:54:19.191Z,100601.78
2023-03-22T05:56:47.358Z,100597.59
2023-03-22T05:59:11.607Z,100602.47
2023-03-22T06:01:35.377Z,100601.94
2023-03-22T06:04:12.785Z,100602.38
2023-03-22T06:06:58.355Z,100600.75
2023-03-22T06:09:36.395Z,100594.97
2023-03-22T06:12:03.453Z,100594.19
2023-03-22T06:14:27.576Z,100593.81
2023-03-22T06:17:03.879Z,100602.00
2023-03-22T06:19:29.138Z,100600.66
2023-03-22T06:21:53.648Z,100602.16
2023-03-22T06:24:20.019Z,100605.59
2023-03-22T06:26:43.744Z,100596.09
2023-03-22T06:29:07.430Z,100611.09
2023-03-22T06:31:31.750Z,100607.72
2023-03-22T06:34:00.821Z,100597.97
2023-03-22T06:36:38.939Z,100602.66
2023-03-22T06:39:09.381Z,100602.28
2023-03-22T06:41:33.238Z,100604.13
2023-03-22T06:43:57.552Z,100601.47
2023-03-22T06:46:36.471Z,100609.72
2023-03-22T06:49:09.078Z,100617.41
2023-03-22T06:51:33.043Z,100613.97
2023-03-22T06:53:58.148Z,100606.03
2023-03-22T06:56:22.099Z,100611.22
2023-03-22T06:58:51.868Z,100607.66
2023-03-22T07:01:15.972Z,100613.09
2023-03-22T07:03:39.988Z,100603.97
2023-03-22T07:06:10.641Z,100612.28
2023-03-22T07:08:38.345Z,100607.63
2023-03-22T07:11:06.133Z,100604.28
2023-03-22T07:13:30.315Z,100610.97
2023-03-22T07:16:00.185Z,100610.81
2023-03-22T07:18:32.097Z,100608.53
2023-03-22T07:20:55.918Z,100613.91
2023-03-22T07:23:20.448Z,100612.50
2023-03-22T07:25:49.812Z,100609.91
2023-03-22T07:28:24.221Z,100602.78
2023-03-22T07:30:48.543Z,100603.69
2023-03-22T07:33:14.981Z,100601.31
2023-03-22T07:35:39.940Z,100600.91
2023-03-22T07:38:04.153Z,100591.63
2023-03-22T07:40:29.691Z,100589.31
2023-03-22T07:42:55.751Z,100590.19
2023-03-22T07:45:45.446Z,100581.53
2023-03-22T07:48:39.167Z,100579.22
2023-03-22T07:51:21.424Z,100580.97
2023-03-22T07:53:45.480Z,100581.09
2023-03-22T07:56:10.371Z,100579.00
2023-03-22T07:58:34.150Z,100581.72
2023-03-22T08:01:00.622Z,100575.47
2023-03-22T08:03:53.874Z,100584.59
2023-03-22T08:06:36.884Z,100575.78
2023-03-22T08:09:00.989Z,100574.59
2023-03-22T08:11:24.740Z,100579.13
2023-03-22T08:13:48.985Z,100576.28
2023-03-22T08:16:14.104Z,100563.13
2023-03-22T08:18:37.905Z,100574.31
2023-03-22T08:21:02.645Z,100578.69
2023-03-22T08:23:40.856Z,100575.59
2023-03-22T08:26:17.785Z,100571.63
2023-03-22T08:28:42.058Z,100574.47
2023-03-22T08:31:15.386Z,100575.88
2023-03-22T08:33:40.709Z,100571.63
2023-03-22T08:36:10.000Z,100567.25
2023-03-22T08:38:40.077Z,100558.72
2023-03-22T08:41:04.067Z,100559.28
2023-03-22T08:43:27.847Z,100554.59
2023-03-22T08:45:51.722Z,100554.88
2023-03-22T08:48:18.443Z,100553.97
2023-03-22T08:51:08.976Z,100547.19
2023-03-22T08:53:47.378Z,100539.47
2023-03-22T08:56:37.455Z,100533.81
2023-03-22T08:59:18.005Z,100539.16
2023-03-22T09:02:01.118Z,100536.97
2023-03-22T09:04:26.335Z,100540.75
2023-03-22T09:06:50.518Z,100535.09
2023-03-22T09:09:14.730Z,100533.59
2023-03-22T09:11:41.416Z,100532.28
2023-03-22T09:14:05.550Z,100527.06
2023-03-22T09:16:29.241Z,100527.97
2023-03-22T09:18:56.397Z,100518.69
2023-03-22T09:21:21.900Z,100518.59
2023-03-22T09:23:50.517Z,100522.22
2023-03-22T09:26:18.135Z,100519.22
2023-03-22T09:28:46.928Z,100522.13
2023-03-22T09:31:12.265Z,100524.69
2023-03-22T09:33:38.992Z,100525.75
2023-03-22T09:36:02.681Z,100515.47
2023-03-22T09:38:33.899Z,100515.31
2023-03-22T09:41:02.727Z,100518.91
2023-03-22T09:43:35.081Z,100517.72
2023-03-22T09:45:59.137Z,100511.50
2023-03-22T09:48:29.433Z,100510.28
2023-03-22T09:50:55.651Z,100508.84
2023-03-22T09:53:20.638Z,100501.72
2023-03-22T09:55:52.224Z,100499.75
2023-03-22T09:58:25.989Z,100496.63
2023-03-22T10:00:57.534Z,100500.28
2023-03-22T10:03:40.067Z,100495.09
2023-03-22T10:06:07.438Z,100493.84
2023-03-22T10:08:41.117Z,100499.22
2023-03-22T10:11:14.927Z,100491.25
2023-03-22T10:13:48.230Z,100491.75
2023-03-22T10:16:17.757Z,100500.59
2023-03-22T10:18:47.230Z,100486.66
2023-03-22T10:21:13.108Z,100481.06
2023-03-22T10:23:43.573Z,100470.59
2023-03-22T10:26:11.495Z,100467.19
2023-03-22T10:28:41.310Z,100456.75
2023-03-22T10:31:06.045Z,100445.75
2023-03-22T10:33:50.319Z,100438.91
2023-03-22T10:36:16.568Z,100435.00
2023-03-22T10:38:48.051Z,100426.66
2023-03-22T10:41:16.858Z,100434.06
2023-03-22T10:43:42.322Z,100428.38
2023-03-22T10:46:09.335Z,100425.53
2023-03-22T10:48:35.582Z,100425.28
2023-03-22T10:51:00.838Z,100414.69
2023-03-22T10:53:34.402Z,100414.66
2023-03-22T10:55:58.276Z,100415.03
2023-03-22T10:58:31.159Z,100407.66
2023-03-22T11:00:59.701Z,100416.03
2023-03-22T11:03:31.262Z,100412.56
2023-03-22T11:06:02.239Z,100408.09
2023-03-22T11:08:25.904Z,100406.50
2023-03-22T11:10:52.603Z,100414.91
2023-03-22T11:13:23.191Z,100415.50
2023-03-22T11:15:54.783Z,100408.69
2023-03-22T11:18:20.240Z,100407.13
2023-03-22T11:20:57.012Z,100405.53
2023-03-22T11:23:23.063Z,100408.59
2023-03-22T11:25:50.406Z,100401.06
2023-03-22T11:28:20.276Z,100408.44
2023-03-22T11:31:02.516Z,100415.22
2023-03-22T11:33:26.736Z,100405.75
2023-03-22T11:35:56.821Z,100407.47
2023-03-22T11:38:32.936Z,100404.22
2023-03-22T11:41:00.394Z,100393.16
2023-03-22T11:43:27.622Z,100385.16
2023-03-22T11:45:58.379Z,100384.69
2023-03-22T11:48:27.189Z,100381.44
2023-03-22T11:50:54.086Z,100380.44
2023-03-22T11:53:22.482Z,100374.84
2023-03-22T11:55:47.652Z,100381.22
2023-03-22T11:58:28.162Z,100365.50
2023-03-22T12:00:55.134Z,100366.19
2023-03-22T12:03:24.048Z,100365.13
2023-03-22T12:05:51.145Z,100358.75
2023-03-22T12:08:22.225Z,100354.72
2023-03-22T12:10:49.305Z,100351.06
2023-03-22T12:13:22.776Z,100337.00
2023-03-22T12:15:53.493Z,100338.97
2023-03-22T12:18:21.057Z,100330.50
2023-03-22T12:20:53.161Z,100318.53
2023-03-22T12:23:19.381Z,100331.38
2023-03-22T12:25:47.790Z,100328.38
2023-03-22T12:28:17.436Z,100324.81
2023-03-22T12:30:45.132Z,100307.34
2023-03-22T12:33:19.107Z,100308.00
2023-03-22T12:35:46.833Z,100302.34
2023-03-22T12:38:25.172Z,100311.72
2023-03-22T12:40:49.657Z,100311.47
2023-03-22T12:43:18.709Z,100306.53
2023-03-22T12:45:47.775Z,100295.50
2023-03-22T12:48:18.257Z,100306.56
2023-03-22T12:50:48.602Z,100306.63
2023-03-22T12:53:16.682Z,100305.13
2023-03-22T12:55:41.794Z,100285.41
2023-03-22T12:58:08.407Z,100301.00
2023-03-22T13:00:39.995Z,100292.63
2023-03-22T13:03:10.860Z,100286.94
2023-03-22T13:05:38.373Z,100292.25
2023-03-22T13:08:04.314Z,100289.66
2023-03-22T13:11:04.397Z,100295.72
2023-03-22T13:13:47.325Z,100282.59
2023-03-22T13:16:38.446Z,100287.97
2023-03-22T13:19:36.219Z,100288.44
2023-03-22T13:22:21.818Z,100294.06
2023-03-22T13:25:08.675Z,100292.84
2023-03-22T13:27:42.120Z,100291.63
2023-03-22T13:30:10.618Z,100291.59
2023-03-22T13:32:37.663Z,100292.53
2023-03-22T13:35:02.041Z,100292.09
2023-03-22T13:37:35.782Z,100286.75
2023-03-22T13:40:02.241Z,100287.47
2023-03-22T13:42:35.574Z,100285.63
2023-03-22T13:45:03.859Z,100288.72
2023-03-22T13:47:38.155Z,100300.78
2023-03-22T13:50:14.997Z,100276.44
2023-03-22T13:52:44.341Z,100274.19
2023-03-22T13:55:42.542Z,100273.53
2023-03-22T13:58:10.971Z,100268.00
2023-03-22T14:00:55.908Z,100264.88
2023-03-22T14:03:29.906Z,100258.75
2023-03-22T14:06:15.961Z,100254.66
2023-03-22T14:08:45.317Z,100256.25
2023-03-22T14:11:22.680Z,100256.72
2023-03-22T14:13:52.370Z,100260.84
2023-03-22T14:16:23.062Z,100250.47
2023-03-22T14:18:50.044Z,100244.56
2023-03-22T14:21:19.189Z,100252.97
